Time;durP1;ratioP1;P1;durP2;ratioP2;P2;SDS_P1;SDS_P2;PMS_P1;PMS_P2;Temp;Humidity;BMP_temperature;BMP_pressure;BME280_temperature;BME280_humidity;BME280_pressure;Samples;Min_cycle;Max_cycle;Signal;HPM_P1;HPM_P2
2023/04/19 00:00:02;;;;;;;;;;;12.10;99.90;12.50;99649.00;;;;335625;29;82648;-93
2023/04/19 00:00:15;;;;;;;;;;;12.00;99.90;12.40;99649.00;;;;334660;29;95351;-94
2023/04/19 00:00:27;;;;;;;;;;;12.10;99.90;12.60;99651.00;;;;334188;29;83492;-93
2023/04/19 00:00:42;;;;;;;;;;;12.00;99.90;12.50;99654.00;;;;333481;29;95465;-93
2023/04/19 00:00:56;;;;;;;;;;;12.10;99.90;12.40;99655.00;;;;333952;29;84103;-93
2023/04/19 00:01:08;;;;;;;;;;;12.10;99.90;12.40;99656.00;;;;337352;28;95728;-93
2023/04/19 00:01:20;;;;;;;;;;;12.00;99.90;12.50;99658.00;;;;334137;29;83515;-94
2023/04/19 00:01:32;;;;;;;;;;;12.00;99.90;12.40;99655.00;;;;334919;29;95429;-93
2023/04/19 00:01:44;;;;;;;;;;;12.00;99.90;12.40;99651.00;;;;336831;28;83369;-93
2023/04/19 00:01:56;;;;;;;;;;;12.00;99.90;12.40;99655.00;;;;334650;29;96654;-93
2023/04/19 00:02:08;;;;;;;;;;;12.00;99.90;12.40;99657.00;;;;335533;29;83509;-93
2023/04/19 00:02:20;;;;;;;;;;;12.00;99.90;12.30;99656.00;;;;333510;29;94705;-94
2023/04/19 00:02:34;;;;;;;;;;;12.00;99.90;12.40;99655.00;;;;337186;28;82394;-95
2023/04/19 00:02:48;;;;;;;;;;;12.00;99.90;12.30;99660.00;;;;333663;29;94732;-93
2023/04/19 00:03:00;;;;;;;;;;;12.00;99.90;12.30;99657.00;;;;335422;29;82594;-93
2023/04/19 00:03:13;;;;;;;;;;;12.00;99.90;12.40;99658.00;;;;336132;28;95724;-93
2023/04/19 00:03:26;;;;;;;;;;;11.90;99.90;12.30;99660.00;;;;336717;28;83594;-94
2023/04/19 00:03:38;;;;;;;;;;;11.90;99.90;12.40;99661.00;;;;334643;29;95569;-94
2023/04/19 00:03:50;;;;;;;;;;;11.90;99.90;12.40;99650.00;;;;334124;29;83451;-94
2023/04/19 00:04:03;;;;;;;;;;;12.00;99.90;12.40;99648.00;;;;334616;29;95576;-94
2023/04/19 00:04:15;;;;;;;;;;;12.00;99.90;12.40;99658.00;;;;332886;29;82634;-94
2023/04/19 00:04:28;;;;;;;;;;;11.90;99.90;12.40;99665.00;;;;332098;29;95638;-94
2023/04/19 00:04:43;;;;;;;;;;;11.90;99.90;12.40;99656.00;;;;334370;29;83499;-93
2023/04/19 00:04:55;;;;;;;;;;;11.90;99.90;12.20;99663.00;;;;336124;28;95513;-93
2023/04/19 00:05:07;;;;;;;;;;;11.90;99.90;12.20;99654.00;;;;335764;29;83507;-94
2023/04/19 00:05:22;;;;;;;;;;;11.90;99.90;12.20;99661.00;;;;333646;29;94630;-93
2023/04/19 00:05:34;;;;;;;;;;;11.90;99.90;12.20;99657.00;;;;337067;28;83515;-93
2023/04/19 00:05:47;;;;;;;;;;;11.90;99.90;12.30;99659.00;;;;336312;28;95805;-93
2023/04/19 00:05:58;;;;;;;;;;;11.90;99.90;12.40;99654.00;;;;335895;29;83336;-94
2023/04/19 00:06:13;;;;;;;;;;;11.90;99.90;12.40;99662.00;;;;334755;29;96695;-94
2023/04/19 00:06:29;;;;;;;;;;;11.90;99.90;12.30;99660.00;;;;338415;28;82522;-93
2023/04/19 00:06:41;;;;;;;;;;;11.90;99.90;12.30;99663.00;;;;336108;28;94763;-94
2023/04/19 00:06:53;;;;;;;;;;;11.90;99.90;12.20;99667.00;;;;335670;29;82591;-93
2023/04/19 00:07:05;;;;;;;;;;;11.90;99.90;12.10;99666.00;;;;333726;29;96341;-94
2023/04/19 00:07:17;;;;;;;;;;;11.90;99.90;12.00;99654.00;;;;335771;29;82588;-94
2023/04/19 00:07:29;;;;;;;;;;;11.90;99.90;12.00;99657.00;;;;337447;28;94971;-94
2023/04/19 00:07:41;;;;;;;;;;;11.80;99.90;12.00;99655.00;;;;335631;28;83411;-94
2023/04/19 00:07:53;;;;;;;;;;;11.80;99.90;11.90;99662.00;;;;333755;29;95656;-94
2023/04/19 00:08:05;;;;;;;;;;;11.80;99.90;11.80;99661.00;;;;334407;29;83795;-93
2023/04/19 00:08:17;;;;;;;;;;;11.80;99.90;11.80;99669.00;;;;336145;28;97681;-93
2023/04/19 00:08:29;;;;;;;;;;;11.80;99.90;11.80;99659.00;;;;337060;28;83412;-94
2023/04/19 00:08:41;;;;;;;;;;;11.80;99.90;11.60;99662.00;;;;333685;29;95291;-93
2023/04/19 00:08:53;;;;;;;;;;;11.80;99.90;11.60;99664.00;;;;335662;29;83430;-94
2023/04/19 00:09:06;;;;;;;;;;;11.70;99.90;11.80;99666.00;;;;336161;28;97392;-94
2023/04/19 00:09:17;;;;;;;;;;;11.70;99.90;11.80;99666.00;;;;338372;28;83367;-94
2023/04/19 00:09:29;;;;;;;;;;;11.70;99.90;11.80;99665.00;;;;333372;29;95033;-94
2023/04/19 00:09:42;;;;;;;;;;;11.70;99.90;11.70;99667.00;;;;337086;28;83464;-93
2023/04/19 00:09:54;;;;;;;;;;;11.70;99.90;11.70;99660.00;;;;334990;29;93164;-94
2023/04/19 00:10:06;;;;;;;;;;;11.70;99.90;11.70;99665.00;;;;334496;29;82461;-93
2023/04/19 00:10:18;;;;;;;;;;;11.60;99.90;11.60;99662.00;;;;334966;29;97555;-94
2023/04/19 00:10:30;;;;;;;;;;;11.60;99.90;11.50;99663.00;;;;334368;29;83501;-94
2023/04/19 00:10:42;;;;;;;;;;;11.60;99.90;11.60;99666.00;;;;333561;29;96342;-94
2023/04/19 00:10:54;;;;;;;;;;;11.70;99.90;11.60;99650.00;;;;337014;28;82453;-94
2023/04/19 00:11:07;;;;;;;;;;;11.60;99.90;11.60;99660.00;;;;334964;29;95268;-94
2023/04/19 00:11:19;;;;;;;;;;;11.60;99.90;11.50;99667.00;;;;334434;29;83360;-93
2023/04/19 00:11:31;;;;;;;;;;;11.60;99.90;11.50;99660.00;;;;332403;29;95509;-93
2023/04/19 00:11:42;;;;;;;;;;;11.60;99.90;11.50;99665.00;;;;335630;29;83416;-93
2023/04/19 00:11:54;;;;;;;;;;;11.60;99.90;11.50;99660.00;;;;336298;28;96910;-93
2023/04/19 00:12:06;;;;;;;;;;;11.50;99.90;11.50;99669.00;;;;335653;29;83385;-93
2023/04/19 00:12:18;;;;;;;;;;;11.60;99.90;11.40;99664.00;;;;333713;29;96786;-93
2023/04/19 00:12:30;;;;;;;;;;;11.60;99.90;11.50;99668.00;;;;335749;29;83427;-94
2023/04/19 00:12:42;;;;;;;;;;;11.50;99.90;11.50;99666.00;;;;334927;29;95537;-93
2023/04/19 00:12:54;;;;;;;;;;;11.50;99.90;11.40;99652.00;;;;335784;29;83377;-93
2023/04/19 00:13:05;;;;;;;;;;;11.50;99.90;11.30;99668.00;;;;336523;28;95287;-93
2023/04/19 00:13:17;;;;;;;;;;;11.50;99.90;11.40;99664.00;;;;335809;29;82480;-93
2023/04/19 00:13:29;;;;;;;;;;;11.50;99.90;11.40;99657.00;;;;333764;29;96714;-93
2023/04/19 00:13:41;;;;;;;;;;;11.40;99.90;11.40;99655.00;;;;334318;29;83402;-93
2023/04/19 00:13:53;;;;;;;;;;;11.40;99.90;11.50;99671.00;;;;334840;29;95762;-93
2023/04/19 00:14:05;;;;;;;;;;;11.40;99.90;11.50;99661.00;;;;336906;28;82597;-93
2023/04/19 00:14:16;;;;;;;;;;;11.40;99.90;11.70;99657.00;;;;332376;29;96602;-94
2023/04/19 00:14:29;;;;;;;;;;;11.40;99.90;11.80;99655.00;;;;336811;28;82553;-93
2023/04/19 00:14:41;;;;;;;;;;;11.40;99.90;11.90;99666.00;;;;334768;28;95599;-93
2023/04/19 00:14:52;;;;;;;;;;;11.40;99.90;11.90;99666.00;;;;334416;29;82419;-94
2023/04/19 00:15:05;;;;;;;;;;;11.50;99.90;11.90;99670.00;;;;336226;28;95918;-93
2023/04/19 00:15:17;;;;;;;;;;;11.40;99.90;11.80;99660.00;;;;336924;28;82541;-93
2023/04/19 00:15:29;;;;;;;;;;;11.50;99.90;12.00;99663.00;;;;331477;29;96626;-93
2023/04/19 00:15:41;;;;;;;;;;;11.50;99.90;12.00;99658.00;;;;335542;29;83537;-94
2023/04/19 00:15:53;;;;;;;;;;;11.50;99.90;12.00;99658.00;;;;336113;28;95856;-93
2023/04/19 00:16:05;;;;;;;;;;;11.40;99.90;11.90;99653.00;;;;335519;29;83435;-94
2023/04/19 00:16:17;;;;;;;;;;;11.50;99.90;11.80;99656.00;;;;332146;29;97262;-93
2023/04/19 00:16:29;;;;;;;;;;;11.50;99.90;11.70;99662.00;;;;332980;29;83404;-93
2023/04/19 00:16:41;;;;;;;;;;;11.50;99.90;11.80;99657.00;;;;335957;28;96826;-93
2023/04/19 00:16:53;;;;;;;;;;;11.50;99.90;11.80;99667.00;;;;335507;29;83309;-93
2023/04/19 00:17:05;;;;;;;;;;;11.50;99.90;11.90;99653.00;;;;334801;29;95625;-93
2023/04/19 00:17:17;;;;;;;;;;;11.50;99.90;11.80;99660.00;;;;335544;29;82527;-94
2023/04/19 00:17:28;;;;;;;;;;;11.50;99.90;11.80;99659.00;;;;334720;29;96884;-94
2023/04/19 00:17:40;;;;;;;;;;;11.50;99.90;11.80;99656.00;;;;338140;28;82470;-93
2023/04/19 00:17:52;;;;;;;;;;;11.50;99.90;11.70;99665.00;;;;334727;29;94775;-94
2023/04/19 00:18:04;;;;;;;;;;;11.40;99.90;11.60;99656.00;;;;334225;29;83400;-94
2023/04/19 00:18:16;;;;;;;;;;;11.50;99.90;11.70;99661.00;;;;335960;28;96776;-94
2023/04/19 00:18:28;;;;;;;;;;;11.50;99.90;11.80;99656.00;;;;332848;29;83567;-93
2023/04/19 00:18:40;;;;;;;;;;;11.40;99.90;11.80;99658.00;;;;333452;29;96706;-94
2023/04/19 00:18:52;;;;;;;;;;;11.40;99.90;11.60;99657.00;;;;337033;28;83403;-94
2023/04/19 00:19:04;;;;;;;;;;;11.40;99.90;11.80;99655.00;;;;335022;29;92722;-94
2023/04/19 00:19:16;;;;;;;;;;;11.40;99.90;11.90;99662.00;;;;335690;29;82642;-94
2023/04/19 00:19:28;;;;;;;;;;;11.50;99.90;11.90;99659.00;;;;334795;29;96646;-94
2023/04/19 00:19:40;;;;;;;;;;;11.50;99.90;11.80;99660.00;;;;338579;28;82464;-94
2023/04/19 00:19:52;;;;;;;;;;;11.40;99.90;11.70;99650.00;;;;335185;29;95228;-93
2023/04/19 00:20:05;;;;;;;;;;;11.40;99.90;11.60;99661.00;;;;334444;29;82464;-93
2023/04/19 00:20:17;;;;;;;;;;;11.40;99.90;11.60;99658.00;;;;338993;28;97370;-93
2023/04/19 00:20:29;;;;;;;;;;;11.40;99.90;11.60;99657.00;;;;335909;29;83440;-94
2023/04/19 00:20:41;;;;;;;;;;;11.40;99.90;11.70;99660.00;;;;333680;29;95535;-94
2023/04/19 00:20:53;;;;;;;;;;;11.40;99.90;11.80;99659.00;;;;338556;28;83268;-94
2023/04/19 00:21:05;;;;;;;;;;;11.40;99.90;11.80;99659.00;;;;336250;28;96775;-93
2023/04/19 00:21:17;;;;;;;;;;;11.40;99.90;11.80;99655.00;;;;333102;29;82255;-93
2023/04/19 00:21:30;;;;;;;;;;;11.40;99.90;11.80;99656.00;;;;333658;29;96227;-93
2023/04/19 00:21:42;;;;;;;;;;;11.40;99.90;11.90;99660.00;;;;334539;29;82502;-94
2023/04/19 00:21:54;;;;;;;;;;;11.40;99.90;11.80;99654.00;;;;335516;28;95469;-93
2023/04/19 00:22:06;;;;;;;;;;;11.40;99.90;11.90;99655.00;;;;334340;29;82569;-93
2023/04/19 00:22:17;;;;;;;;;;;11.40;99.90;11.90;99660.00;;;;333585;29;97688;-94
2023/04/19 00:22:29;;;;;;;;;;;11.40;99.90;11.70;99657.00;;;;334252;29;82518;-94
2023/04/19 00:22:41;;;;;;;;;;;11.40;99.90;11.70;99652.00;;;;332171;29;96575;-92
2023/04/19 00:22:53;;;;;;;;;;;11.40;99.90;11.70;99662.00;;;;334371;29;82502;-93
2023/04/19 00:23:05;;;;;;;;;;;11.40;99.90;11.80;99662.00;;;;336109;28;96084;-94
2023/04/19 00:23:17;;;;;;;;;;;11.40;99.90;11.80;99652.00;;;;335678;29;83418;-93
2023/04/19 00:23:29;;;;;;;;;;;11.40;99.90;11.80;99655.00;;;;337744;28;92992;-94
2023/04/19 00:23:40;;;;;;;;;;;11.40;99.90;11.70;99650.00;;;;335645;29;82495;-94
2023/04/19 00:23:52;;;;;;;;;;;11.40;99.90;11.70;99640.00;;;;336308;28;95349;-94
2023/04/19 00:24:05;;;;;;;;;;;11.40;99.90;11.70;99653.00;;;;336940;28;83551;-94
2023/04/19 00:24:17;;;;;;;;;;;11.40;99.90;11.60;99655.00;;;;333589;29;97318;-92
2023/04/19 00:24:29;;;;;;;;;;;11.40;99.90;11.60;99651.00;;;;336995;28;82592;-94
2023/04/19 00:24:41;;;;;;;;;;;11.40;99.90;11.60;99661.00;;;;336115;28;96727;-95
2023/04/19 00:24:53;;;;;;;;;;;11.40;99.90;11.50;99658.00;;;;334398;29;83298;-93
2023/04/19 00:25:05;;;;;;;;;;;11.40;99.90;11.70;99654.00;;;;335001;29;95969;-94
2023/04/19 00:25:17;;;;;;;;;;;11.40;99.90;11.70;99653.00;;;;335603;29;83231;-94
2023/04/19 00:25:30;;;;;;;;;;;11.40;99.90;11.80;99656.00;;;;333671;29;95633;-93
2023/04/19 00:25:44;;;;;;;;;;;11.40;99.90;11.80;99657.00;;;;335728;29;82432;-93
2023/04/19 00:25:55;;;;;;;;;;;11.40;99.90;11.90;99663.00;;;;333647;29;95520;-94
2023/04/19 00:26:07;;;;;;;;;;;11.40;99.90;11.90;99652.00;;;;335619;29;83516;-94
2023/04/19 00:26:19;;;;;;;;;;;11.40;99.90;11.90;99650.00;;;;336066;28;97902;-94
2023/04/19 00:26:31;;;;;;;;;;;11.40;99.90;11.90;99649.00;;;;334339;29;83287;-93
2023/04/19 00:26:43;;;;;;;;;;;11.40;99.90;11.70;99653.00;;;;333601;29;96662;-93
2023/04/19 00:26:56;;;;;;;;;;;11.40;99.90;11.80;99651.00;;;;334299;29;83370;-93
2023/04/19 00:27:08;;;;;;;;;;;11.40;99.90;11.80;99653.00;;;;334967;29;96342;-94
2023/04/19 00:27:19;;;;;;;;;;;11.40;99.90;11.90;99651.00;;;;334280;29;82539;-93
2023/04/19 00:27:31;;;;;;;;;;;11.40;99.90;11.70;99654.00;;;;333646;29;95276;-93
2023/04/19 00:27:43;;;;;;;;;;;11.40;99.90;11.90;99654.00;;;;333019;29;83370;-94
2023/04/19 00:27:55;;;;;;;;;;;11.40;99.90;11.90;99655.00;;;;333563;29;97103;-92
2023/04/19 00:28:07;;;;;;;;;;;11.40;99.90;11.90;99651.00;;;;335608;29;82812;-93
2023/04/19 00:28:18;;;;;;;;;;;11.40;99.90;11.70;99655.00;;;;333621;29;97164;-94
2023/04/19 00:28:32;;;;;;;;;;;11.40;99.90;11.60;99647.00;;;;335706;29;83371;-93
2023/04/19 00:28:44;;;;;;;;;;;11.40;99.90;11.60;99651.00;;;;334725;29;96939;-94
2023/04/19 00:28:56;;;;;;;;;;;11.40;99.90;11.70;99645.00;;;;335611;29;82368;-94
2023/04/19 00:29:08;;;;;;;;;;;11.40;99.90;11.90;99647.00;;;;336201;28;95735;-93
2023/04/19 00:29:20;;;;;;;;;;;11.40;99.90;11.90;99655.00;;;;334225;29;83424;-93
2023/04/19 00:29:32;;;;;;;;;;;11.40;99.90;11.80;99647.00;;;;333537;29;95835;-93
2023/04/19 00:29:44;;;;;;;;;;;11.30;99.90;11.80;99653.00;;;;336839;28;83388;-94
2023/04/19 00:29:56;;;;;;;;;;;11.40;99.90;11.60;99651.00;;;;333555;29;96741;-93
2023/04/19 00:30:08;;;;;;;;;;;11.40;99.90;11.50;99662.00;;;;335590;29;83528;-93
2023/04/19 00:30:20;;;;;;;;;;;11.40;99.90;11.50;99659.00;;;;334794;29;96615;-92
2023/04/19 00:30:32;;;;;;;;;;;11.40;99.90;11.70;99642.00;;;;334378;29;83431;-93
2023/04/19 00:30:44;;;;;;;;;;;11.40;99.90;11.80;99654.00;;;;333793;29;95920;-94
2023/04/19 00:30:56;;;;;;;;;;;11.30;99.90;11.80;99646.00;;;;333139;29;82473;-93
2023/04/19 00:31:08;;;;;;;;;;;11.40;99.90;11.80;99653.00;;;;332350;29;95521;-93
2023/04/19 00:31:20;;;;;;;;;;;11.40;99.90;11.70;99655.00;;;;335713;29;82499;-93
2023/04/19 00:31:32;;;;;;;;;;;11.40;99.90;11.80;99656.00;;;;334996;29;96775;-93
2023/04/19 00:31:44;;;;;;;;;;;11.30;99.90;11.70;99651.00;;;;337278;28;82578;-93
2023/04/19 00:31:56;;;;;;;;;;;11.40;99.90;11.80;99655.00;;;;336286;28;94974;-95
2023/04/19 00:32:08;;;;;;;;;;;11.40;99.90;11.90;99647.00;;;;333125;29;82480;-92
2023/04/19 00:32:20;;;;;;;;;;;11.40;99.90;11.90;99651.00;;;;335961;28;96539;-94
2023/04/19 00:32:32;;;;;;;;;;;11.40;99.90;11.90;99655.00;;;;335571;29;82489;-94
2023/04/19 00:32:44;;;;;;;;;;;11.40;99.90;11.80;99659.00;;;;333585;29;94357;-94
2023/04/19 00:32:56;;;;;;;;;;;11.40;99.90;11.70;99650.00;;;;336932;28;83521;-93
2023/04/19 00:33:11;;;;;;;;;;;11.40;99.90;11.70;99650.00;;;;334596;29;95363;-94
2023/04/19 00:33:23;;;;;;;;;;;11.40;99.90;11.70;99652.00;;;;335478;29;83486;-93
2023/04/19 00:33:35;;;;;;;;;;;11.40;99.90;11.70;99652.00;;;;334843;29;96831;-92
2023/04/19 00:33:47;;;;;;;;;;;11.40;99.90;11.70;99650.00;;;;335563;29;83415;-93
2023/04/19 00:33:59;;;;;;;;;;;11.40;99.90;11.70;99654.00;;;;335842;28;95699;-94
2023/04/19 00:34:11;;;;;;;;;;;11.30;99.90;11.70;99644.00;;;;334162;29;84393;-93
2023/04/19 00:34:23;;;;;;;;;;;11.30;99.90;11.70;99647.00;;;;336113;28;96754;-93
2023/04/19 00:34:35;;;;;;;;;;;11.40;99.90;11.70;99649.00;;;;334495;29;82483;-93
2023/04/19 00:34:47;;;;;;;;;;;11.40;99.90;11.60;99649.00;;;;336237;28;97089;-93
2023/04/19 00:34:58;;;;;;;;;;;11.30;99.90;11.70;99646.00;;;;337006;28;83401;-93
2023/04/19 00:35:10;;;;;;;;;;;11.40;99.90;11.80;99645.00;;;;335065;29;96016;-93
2023/04/19 00:35:22;;;;;;;;;;;11.40;99.90;11.80;99649.00;;;;335434;29;83439;-92
2023/04/19 00:35:34;;;;;;;;;;;11.40;99.90;11.80;99647.00;;;;334925;29;96913;-93
2023/04/19 00:35:46;;;;;;;;;;;11.30;99.90;11.80;99647.00;;;;334252;29;83454;-94
2023/04/19 00:35:58;;;;;;;;;;;11.30;99.90;11.90;99648.00;;;;334854;29;96449;-93
2023/04/19 00:36:10;;;;;;;;;;;11.40;99.90;11.80;99650.00;;;;336904;28;82584;-94
2023/04/19 00:36:22;;;;;;;;;;;11.40;99.90;11.80;99644.00;;;;337398;28;96545;-94
2023/04/19 00:36:34;;;;;;;;;;;11.40;99.90;11.70;99642.00;;;;334382;29;83452;-94
2023/04/19 00:36:46;;;;;;;;;;;11.30;99.90;11.90;99647.00;;;;334925;29;96838;-94
2023/04/19 00:36:58;;;;;;;;;;;11.40;99.90;11.80;99638.00;;;;336994;28;83417;-94
2023/04/19 00:37:10;;;;;;;;;;;11.40;99.90;11.90;99649.00;;;;334899;29;95958;-94
2023/04/19 00:37:22;;;;;;;;;;;11.40;99.90;11.90;99646.00;;;;335694;29;83407;-93
2023/04/19 00:37:34;;;;;;;;;;;11.40;99.90;11.80;99640.00;;;;333780;29;96990;-93
2023/04/19 00:37:46;;;;;;;;;;;11.40;99.90;11.80;99644.00;;;;335751;29;83390;-94
2023/04/19 00:37:58;;;;;;;;;;;11.40;99.90;11.80;99647.00;;;;336299;28;96763;-94
2023/04/19 00:38:10;;;;;;;;;;;11.40;99.90;11.80;99650.00;;;;335856;29;83465;-94
2023/04/19 00:38:22;;;;;;;;;;;11.40;99.90;11.80;99643.00;;;;336163;28;97885;-94
2023/04/19 00:38:33;;;;;;;;;;;11.30;99.90;11.70;99646.00;;;;335704;29;82646;-93
2023/04/19 00:38:45;;;;;;;;;;;11.30;99.90;11.80;99648.00;;;;336106;28;95903;-94
2023/04/19 00:38:57;;;;;;;;;;;11.30;99.90;11.90;99651.00;;;;335628;29;82526;-94
2023/04/19 00:39:09;;;;;;;;;;;11.40;99.90;11.90;99644.00;;;;336139;28;96822;-94
2023/04/19 00:39:21;;;;;;;;;;;11.40;99.90;12.00;99643.00;;;;335548;29;83362;-92
2023/04/19 00:39:32;;;;;;;;;;;11.40;99.90;12.00;99649.00;;;;336217;28;96609;-93
2023/04/19 00:39:44;;;;;;;;;;;11.40;99.90;12.00;99643.00;;;;337000;28;83305;-93
2023/04/19 00:39:56;;;;;;;;;;;11.40;99.90;12.10;99647.00;;;;333619;29;95109;-93
2023/04/19 00:40:11;;;;;;;;;;;11.40;99.90;12.00;99648.00;;;;335562;29;82546;-93
2023/04/19 00:40:23;;;;;;;;;;;11.40;99.90;11.90;99645.00;;;;334864;29;96780;-94
2023/04/19 00:40:36;;;;;;;;;;;11.40;99.90;11.90;99648.00;;;;335688;29;82536;-93
2023/04/19 00:40:48;;;;;;;;;;;11.40;99.90;11.90;99645.00;;;;337437;28;95845;-93
2023/04/19 00:41:00;;;;;;;;;;;11.40;99.90;11.90;99646.00;;;;335700;29;82356;-93
2023/04/19 00:41:11;;;;;;;;;;;11.40;99.90;11.90;99649.00;;;;335637;28;96592;-93
2023/04/19 00:41:23;;;;;;;;;;;11.40;99.90;11.80;99650.00;;;;338183;28;83478;-93
2023/04/19 00:41:35;;;;;;;;;;;11.40;99.90;11.90;99643.00;;;;338774;28;95667;-93
2023/04/19 00:41:47;;;;;;;;;;;11.40;99.90;11.80;99640.00;;;;335735;29;82440;-92
2023/04/19 00:42:00;;;;;;;;;;;11.40;99.90;11.80;99647.00;;;;337567;28;96484;-94
2023/04/19 00:42:11;;;;;;;;;;;11.40;99.90;11.70;99647.00;;;;336956;28;82509;-93
2023/04/19 00:42:24;;;;;;;;;;;11.40;99.90;11.70;99647.00;;;;330915;29;97660;-93
2023/04/19 00:42:36;;;;;;;;;;;11.40;99.90;11.70;99646.00;;;;333184;29;83489;-93
2023/04/19 00:42:48;;;;;;;;;;;11.40;99.90;11.70;99648.00;;;;334887;29;96684;-93
2023/04/19 00:42:59;;;;;;;;;;;11.30;99.90;11.70;99651.00;;;;334442;29;83350;-93
2023/04/19 00:43:16;;;;;;;;;;;11.40;99.90;11.70;99646.00;;;;333562;29;96998;-94
2023/04/19 00:43:28;;;;;;;;;;;11.30;99.90;11.80;99645.00;;;;336832;28;83588;-93
2023/04/19 00:43:40;;;;;;;;;;;11.40;99.90;11.60;99646.00;;;;332382;29;93791;-93
2023/04/19 00:43:52;;;;;;;;;;;11.30;99.90;11.50;99639.00;;;;335680;29;83445;-93
2023/04/19 00:44:04;;;;;;;;;;;11.30;99.90;11.50;99646.00;;;;335115;29;96682;-93
2023/04/19 00:44:16;;;;;;;;;;;11.30;99.90;11.50;99647.00;;;;335967;29;82492;-94
2023/04/19 00:44:28;;;;;;;;;;;11.30;99.90;11.60;99653.00;;;;335097;29;98020;-93
2023/04/19 00:44:39;;;;;;;;;;;11.30;99.90;11.50;99646.00;;;;336006;29;82484;-93
2023/04/19 00:44:51;;;;;;;;;;;11.30;99.90;11.40;99651.00;;;;333870;29;96722;-93
2023/04/19 00:45:04;;;;;;;;;;;11.30;99.90;11.40;99649.00;;;;335670;29;82546;-94
2023/04/19 00:45:15;;;;;;;;;;;11.30;99.90;11.30;99649.00;;;;337385;28;95968;-93
2023/04/19 00:45:27;;;;;;;;;;;11.30;99.90;11.30;99649.00;;;;334337;29;82530;-94
2023/04/19 00:45:39;;;;;;;;;;;11.30;99.90;11.30;99647.00;;;;335068;29;95203;-93
2023/04/19 00:45:51;;;;;;;;;;;11.30;99.90;11.40;99659.00;;;;337260;28;83320;-92
2023/04/19 00:46:04;;;;;;;;;;;11.30;99.90;11.20;99652.00;;;;336388;28;96462;-93
2023/04/19 00:46:16;;;;;;;;;;;11.30;99.90;11.10;99653.00;;;;334736;29;83331;-92
2023/04/19 00:46:28;;;;;;;;;;;11.20;99.90;11.30;99649.00;;;;335135;29;97874;-93
2023/04/19 00:46:39;;;;;;;;;;;11.20;99.90;11.30;99647.00;;;;336000;29;83477;-93
2023/04/19 00:46:52;;;;;;;;;;;11.20;99.90;11.20;99653.00;;;;336632;28;93025;-93
2023/04/19 00:47:04;;;;;;;;;;;11.20;99.90;11.10;99654.00;;;;334674;29;82565;-93
2023/04/19 00:47:16;;;;;;;;;;;11.20;99.90;11.10;99660.00;;;;336594;28;95599;-93
2023/04/19 00:47:29;;;;;;;;;;;11.20;99.90;11.00;99654.00;;;;333340;29;83561;-93
2023/04/19 00:47:41;;;;;;;;;;;11.20;99.90;11.10;99652.00;;;;333683;29;94934;-93
2023/04/19 00:47:52;;;;;;;;;;;11.10;99.90;11.20;99652.00;;;;337206;28;83422;-93
2023/04/19 00:48:05;;;;;;;;;;;11.10;99.90;11.20;99658.00;;;;333888;29;95727;-94
2023/04/19 00:48:17;;;;;;;;;;;11.10;99.90;11.20;99651.00;;;;335817;29;83471;-93
2023/04/19 00:48:29;;;;;;;;;;;11.10;99.90;11.20;99658.00;;;;337452;28;96496;-93
2023/04/19 00:48:41;;;;;;;;;;;11.10;99.90;11.40;99654.00;;;;334243;29;82582;-94
2023/04/19 00:48:53;;;;;;;;;;;11.10;99.90;11.50;99651.00;;;;335897;28;94595;-93
2023/04/19 00:49:05;;;;;;;;;;;11.20;99.90;11.40;99647.00;;;;335751;29;83370;-94
2023/04/19 00:49:17;;;;;;;;;;;11.10;99.90;11.50;99657.00;;;;333603;29;96929;-93
2023/04/19 00:49:29;;;;;;;;;;;11.10;99.90;11.50;99657.00;;;;334356;29;82511;-93
2023/04/19 00:49:41;;;;;;;;;;;11.20;99.90;11.40;99653.00;;;;332260;29;95470;-94
2023/04/19 00:49:52;;;;;;;;;;;11.20;99.90;11.30;99647.00;;;;333235;29;82485;-93
2023/04/19 00:50:05;;;;;;;;;;;11.10;99.90;11.30;99649.00;;;;336125;28;95911;-94
2023/04/19 00:50:17;;;;;;;;;;;11.20;99.90;11.30;99657.00;;;;335613;29;83467;-93
2023/04/19 00:50:29;;;;;;;;;;;11.10;99.90;11.30;99651.00;;;;333619;29;97276;-93
2023/04/19 00:50:42;;;;;;;;;;;11.10;99.90;11.40;99650.00;;;;332914;29;82604;-92
2023/04/19 00:50:54;;;;;;;;;;;11.10;99.90;11.30;99659.00;;;;334874;29;94494;-93
2023/04/19 00:51:06;;;;;;;;;;;11.10;99.90;11.20;99649.00;;;;335636;29;82571;-93
2023/04/19 00:51:18;;;;;;;;;;;11.10;99.90;11.40;99658.00;;;;333626;29;95347;-93
2023/04/19 00:51:30;;;;;;;;;;;11.10;99.90;11.50;99652.00;;;;332826;29;83411;-92
2023/04/19 00:51:42;;;;;;;;;;;11.10;99.90;11.60;99647.00;;;;334711;29;95695;-93
2023/04/19 00:51:54;;;;;;;;;;;11.10;99.90;11.60;99652.00;;;;336996;28;83375;-94
2023/04/19 00:52:07;;;;;;;;;;;11.10;99.90;11.70;99651.00;;;;334886;29;95313;-93
2023/04/19 00:52:19;;;;;;;;;;;11.10;99.90;11.70;99645.00;;;;334480;29;83389;-94
2023/04/19 00:52:31;;;;;;;;;;;11.10;99.90;11.70;99650.00;;;;335085;28;96701;-93
2023/04/19 00:52:43;;;;;;;;;;;11.10;99.90;11.80;99654.00;;;;334249;29;83598;-92
2023/04/19 00:52:55;;;;;;;;;;;11.20;99.90;11.60;99650.00;;;;335181;29;96549;-93
2023/04/19 00:53:07;;;;;;;;;;;11.20;99.90;11.60;99650.00;;;;337011;28;83267;-92
2023/04/19 00:53:19;;;;;;;;;;;11.10;99.90;11.60;99653.00;;;;333868;29;94732;-93
2023/04/19 00:53:31;;;;;;;;;;;11.20;99.90;11.60;99651.00;;;;333285;29;83429;-93
2023/04/19 00:53:45;;;;;;;;;;;11.20;99.90;11.40;99653.00;;;;336463;28;94114;-93
2023/04/19 00:53:57;;;;;;;;;;;11.20;99.90;11.30;99656.00;;;;335638;29;83170;-93
2023/04/19 00:54:09;;;;;;;;;;;11.10;99.90;11.50;99656.00;;;;333672;29;97279;-94
2023/04/19 00:54:21;;;;;;;;;;;11.20;99.90;11.50;99648.00;;;;335767;29;82435;-93
2023/04/19 00:54:32;;;;;;;;;;;11.10;99.90;11.50;99647.00;;;;333553;29;97297;-93
2023/04/19 00:54:44;;;;;;;;;;;11.10;99.90;11.50;99654.00;;;;335457;29;82424;-93
2023/04/19 00:54:56;;;;;;;;;;;11.10;99.90;11.60;99656.00;;;;333538;29;94797;-93
2023/04/19 00:55:08;;;;;;;;;;;11.10;99.90;11.50;99657.00;;;;334301;29;82591;-93
2023/04/19 00:55:22;;;;;;;;;;;11.10;99.90;11.60;99651.00;;;;336101;28;95499;-93
2023/04/19 00:55:33;;;;;;;;;;;11.20;99.90;11.50;99644.00;;;;335159;29;82591;-93
2023/04/19 00:55:45;;;;;;;;;;;11.10;99.90;11.50;99656.00;;;;333631;29;93996;-94
2023/04/19 00:55:57;;;;;;;;;;;11.10;99.90;11.40;99654.00;;;;331736;29;82561;-94
2023/04/19 00:56:09;;;;;;;;;;;11.10;99.90;11.40;99653.00;;;;332305;29;94608;-93
2023/04/19 00:56:22;;;;;;;;;;;11.10;99.90;11.40;99651.00;;;;332590;29;82619;-93
2023/04/19 00:56:34;;;;;;;;;;;11.10;99.90;11.30;99655.00;;;;332010;29;94360;-93
2023/04/19 00:56:47;;;;;;;;;;;11.10;99.90;11.30;99647.00;;;;334352;29;82646;-93
2023/04/19 00:56:59;;;;;;;;;;;11.10;99.90;11.20;99655.00;;;;332417;29;93205;-93
2023/04/19 00:57:11;;;;;;;;;;;11.10;99.90;11.20;99655.00;;;;335822;29;83008;-93
2023/04/19 00:57:23;;;;;;;;;;;11.10;99.90;11.20;99655.00;;;;334689;29;94618;-93
2023/04/19 00:57:36;;;;;;;;;;;11.10;99.90;11.30;99648.00;;;;334718;29;83348;-92
2023/04/19 00:57:48;;;;;;;;;;;11.10;99.90;11.30;99649.00;;;;333826;29;92698;-94
2023/04/19 00:57:59;;;;;;;;;;;11.00;99.90;11.40;99657.00;;;;332919;29;83384;-93
2023/04/19 00:58:11;;;;;;;;;;;11.00;99.90;11.40;99661.00;;;;332057;29;92263;-92
2023/04/19 00:58:23;;;;;;;;;;;11.00;99.90;11.40;99658.00;;;;335393;29;82584;-93
2023/04/19 00:58:36;;;;;;;;;;;11.00;99.90;11.30;99662.00;;;;333639;29;93846;-94
2023/04/19 00:58:48;;;;;;;;;;;11.00;99.90;11.20;99661.00;;;;335607;29;83328;-93
2023/04/19 00:59:00;;;;;;;;;;;11.00;99.90;11.20;99658.00;;;;333569;29;95645;-94
2023/04/19 00:59:13;;;;;;;;;;;11.00;99.90;11.30;99659.00;;;;334382;29;82294;-94
2023/04/19 00:59:25;;;;;;;;;;;11.00;99.90;11.40;99660.00;;;;333538;29;94102;-94
2023/04/19 00:59:37;;;;;;;;;;;11.00;99.90;11.40;99667.00;;;;333274;29;82401;-94
2023/04/19 00:59:50;;;;;;;;;;;11.00;99.90;11.40;99658.00;;;;332299;29;92211;-93
2023/04/19 01:00:04;;;;;;;;;;;11.00;99.90;11.40;99660.00;;;;335511;29;82347;-93